sensor_id;sensor_type;location;lat;lon;timestamp;P1;durP1;ratioP1;P2;durP2;ratioP2
58137;SDS011;43955;47.362;18.930;2023-01-09T00:00:56;27.55;;;14.87;;
58137;SDS011;43955;47.362;18.930;2023-01-09T00:03:23;24.67;;;13.13;;
58137;SDS011;43955;47.362;18.930;2023-01-09T00:05:50;27.48;;;14.23;;
58137;SDS011;43955;47.362;18.930;2023-01-09T00:08:18;28.62;;;13.32;;
58137;SDS011;43955;47.362;18.930;2023-01-09T00:10:47;26.33;;;13.68;;
58137;SDS011;43955;47.362;18.930;2023-01-09T00:13:15;25.05;;;13.88;;
58137;SDS011;43955;47.362;18.930;2023-01-09T00:15:43;25.65;;;13.35;;
58137;SDS011;43955;47.362;18.930;2023-01-09T00:18:11;27.35;;;12.98;;
58137;SDS011;43955;47.362;18.930;2023-01-09T00:20:38;20.33;;;12.37;;
58137;SDS011;43955;47.362;18.930;2023-01-09T00:23:06;29.15;;;13.05;;
58137;SDS011;43955;47.362;18.930;2023-01-09T00:25:33;27.95;;;14.27;;
58137;SDS011;43955;47.362;18.930;2023-01-09T00:28:01;23.85;;;13.98;;
58137;SDS011;43955;47.362;18.930;2023-01-09T00:30:28;24.35;;;14.55;;
58137;SDS011;43955;47.362;18.930;2023-01-09T00:32:56;25.20;;;13.50;;
58137;SDS011;43955;47.362;18.930;2023-01-09T00:35:24;25.88;;;14.38;;
58137;SDS011;43955;47.362;18.930;2023-01-09T00:37:52;28.75;;;14.30;;
58137;SDS011;43955;47.362;18.930;2023-01-09T00:40:19;25.60;;;14.75;;
58137;SDS011;43955;47.362;18.930;2023-01-09T00:42:48;27.33;;;15.10;;
58137;SDS011;43955;47.362;18.930;2023-01-09T00:45:19;25.12;;;14.48;;
58137;SDS011;43955;47.362;18.930;2023-01-09T00:47:56;28.75;;;15.00;;
58137;SDS011;43955;47.362;18.930;2023-01-09T00:50:28;24.02;;;13.75;;
58137;SDS011;43955;47.362;18.930;2023-01-09T00:52:59;29.85;;;14.80;;
58137;SDS011;43955;47.362;18.930;2023-01-09T00:55:28;26.17;;;14.35;;
58137;SDS011;43955;47.362;18.930;2023-01-09T00:57:55;28.77;;;14.90;;
58137;SDS011;43955;47.362;18.930;2023-01-09T01:00:23;24.90;;;13.80;;
58137;SDS011;43955;47.362;18.930;2023-01-09T01:02:50;27.30;;;14.25;;
58137;SDS011;43955;47.362;18.930;2023-01-09T01:05:17;29.12;;;15.30;;
58137;SDS011;43955;47.362;18.930;2023-01-09T01:08:08;28.58;;;14.40;;
58137;SDS011;43955;47.362;18.930;2023-01-09T01:10:36;25.62;;;13.70;;
58137;SDS011;43955;47.362;18.930;2023-01-09T01:13:04;27.02;;;14.60;;
58137;SDS011;43955;47.362;18.930;2023-01-09T01:15:31;26.15;;;13.52;;
58137;SDS011;43955;47.362;18.930;2023-01-09T01:17:58;25.98;;;14.50;;
58137;SDS011;43955;47.362;18.930;2023-01-09T01:20:26;27.77;;;14.75;;
58137;SDS011;43955;47.362;18.930;2023-01-09T01:22:53;24.15;;;12.43;;
58137;SDS011;43955;47.362;18.930;2023-01-09T01:25:20;22.25;;;12.27;;
58137;SDS011;43955;47.362;18.930;2023-01-09T01:27:48;24.75;;;12.55;;
58137;SDS011;43955;47.362;18.930;2023-01-09T01:30:16;20.92;;;12.23;;
58137;SDS011;43955;47.362;18.930;2023-01-09T01:32:44;23.65;;;12.57;;
58137;SDS011;43955;47.362;18.930;2023-01-09T01:35:11;21.73;;;12.88;;
58137;SDS011;43955;47.362;18.930;2023-01-09T01:37:39;27.13;;;13.23;;
58137;SDS011;43955;47.362;18.930;2023-01-09T01:40:08;20.62;;;11.65;;
58137;SDS011;43955;47.362;18.930;2023-01-09T01:42:44;22.35;;;12.70;;
58137;SDS011;43955;47.362;18.930;2023-01-09T01:45:13;21.33;;;12.00;;
58137;SDS011;43955;47.362;18.930;2023-01-09T01:47:51;23.05;;;11.82;;
58137;SDS011;43955;47.362;18.930;2023-01-09T01:55:28;22.27;;;10.82;;
58137;SDS011;43955;47.362;18.930;2023-01-09T01:57:57;18.00;;;11.02;;
58137;SDS011;43955;47.362;18.930;2023-01-09T02:00:28;20.10;;;11.38;;
58137;SDS011;43955;47.362;18.930;2023-01-09T02:02:58;18.50;;;9.88;;
58137;SDS011;43955;47.362;18.930;2023-01-09T02:05:25;21.00;;;10.93;;
58137;SDS011;43955;47.362;18.930;2023-01-09T02:07:53;20.37;;;10.82;;
58137;SDS011;43955;47.362;18.930;2023-01-09T02:10:20;18.52;;;9.82;;
58137;SDS011;43955;47.362;18.930;2023-01-09T02:12:49;18.27;;;10.57;;
58137;SDS011;43955;47.362;18.930;2023-01-09T02:15:17;16.37;;;10.27;;
58137;SDS011;43955;47.362;18.930;2023-01-09T02:17:57;16.85;;;9.75;;
58137;SDS011;43955;47.362;18.930;2023-01-09T02:20:40;17.00;;;10.02;;
58137;SDS011;43955;47.362;18.930;2023-01-09T02:34:13;21.35;;;11.15;;
58137;SDS011;43955;47.362;18.930;2023-01-09T02:39:46;18.45;;;8.90;;
58137;SDS011;43955;47.362;18.930;2023-01-09T02:42:21;18.15;;;8.50;;
58137;SDS011;43955;47.362;18.930;2023-01-09T02:44:49;16.90;;;8.55;;
58137;SDS011;43955;47.362;18.930;2023-01-09T02:49:45;16.25;;;8.60;;
58137;SDS011;43955;47.362;18.930;2023-01-09T03:00:07;16.33;;;8.63;;
58137;SDS011;43955;47.362;18.930;2023-01-09T03:02:52;16.12;;;9.13;;
58137;SDS011;43955;47.362;18.930;2023-01-09T03:08:00;16.40;;;9.60;;
58137;SDS011;43955;47.362;18.930;2023-01-09T03:10:31;19.23;;;9.00;;
58137;SDS011;43955;47.362;18.930;2023-01-09T03:13:09;13.98;;;8.68;;
58137;SDS011;43955;47.362;18.930;2023-01-09T03:15:38;18.87;;;9.50;;
58137;SDS011;43955;47.362;18.930;2023-01-09T03:18:07;18.52;;;9.75;;
58137;SDS011;43955;47.362;18.930;2023-01-09T03:20:36;16.33;;;9.15;;
58137;SDS011;43955;47.362;18.930;2023-01-09T03:23:05;18.58;;;9.48;;
58137;SDS011;43955;47.362;18.930;2023-01-09T03:25:32;17.98;;;9.55;;
58137;SDS011;43955;47.362;18.930;2023-01-09T03:28:01;22.70;;;10.02;;
58137;SDS011;43955;47.362;18.930;2023-01-09T03:30:31;16.58;;;9.50;;
58137;SDS011;43955;47.362;18.930;2023-01-09T03:32:59;16.73;;;9.27;;
58137;SDS011;43955;47.362;18.930;2023-01-09T03:35:26;15.10;;;9.57;;
58137;SDS011;43955;47.362;18.930;2023-01-09T03:37:54;18.00;;;10.18;;
58137;SDS011;43955;47.362;18.930;2023-01-09T03:40:21;16.65;;;9.25;;
58137;SDS011;43955;47.362;18.930;2023-01-09T03:42:48;18.00;;;9.23;;
58137;SDS011;43955;47.362;18.930;2023-01-09T03:45:16;20.62;;;10.73;;
58137;SDS011;43955;47.362;18.930;2023-01-09T03:47:43;17.60;;;10.07;;
58137;SDS011;43955;47.362;18.930;2023-01-09T03:50:10;18.75;;;10.35;;
58137;SDS011;43955;47.362;18.930;2023-01-09T03:52:37;19.33;;;9.55;;
58137;SDS011;43955;47.362;18.930;2023-01-09T03:55:04;16.15;;;10.10;;
58137;SDS011;43955;47.362;18.930;2023-01-09T03:57:32;17.20;;;9.52;;
58137;SDS011;43955;47.362;18.930;2023-01-09T03:59:59;17.10;;;9.57;;
58137;SDS011;43955;47.362;18.930;2023-01-09T04:02:26;17.95;;;8.95;;
58137;SDS011;43955;47.362;18.930;2023-01-09T04:04:54;17.12;;;8.98;;
58137;SDS011;43955;47.362;18.930;2023-01-09T04:07:21;21.92;;;10.80;;
58137;SDS011;43955;47.362;18.930;2023-01-09T04:09:48;19.87;;;11.73;;
58137;SDS011;43955;47.362;18.930;2023-01-09T04:12:16;18.12;;;9.73;;
58137;SDS011;43955;47.362;18.930;2023-01-09T04:14:43;14.68;;;8.48;;
58137;SDS011;43955;47.362;18.930;2023-01-09T04:17:10;20.08;;;11.70;;
58137;SDS011;43955;47.362;18.930;2023-01-09T04:19:37;19.65;;;10.52;;
58137;SDS011;43955;47.362;18.930;2023-01-09T04:22:05;17.05;;;9.70;;
58137;SDS011;43955;47.362;18.930;2023-01-09T04:24:32;16.77;;;9.73;;
58137;SDS011;43955;47.362;18.930;2023-01-09T04:26:59;17.70;;;10.07;;
58137;SDS011;43955;47.362;18.930;2023-01-09T04:29:26;20.10;;;10.70;;
58137;SDS011;43955;47.362;18.930;2023-01-09T04:31:54;23.12;;;11.12;;
58137;SDS011;43955;47.362;18.930;2023-01-09T04:34:21;22.50;;;11.12;;
58137;SDS011;43955;47.362;18.930;2023-01-09T04:36:51;18.35;;;10.45;;
58137;SDS011;43955;47.362;18.930;2023-01-09T04:39:19;20.15;;;9.65;;
58137;SDS011;43955;47.362;18.930;2023-01-09T04:41:47;17.27;;;9.80;;
58137;SDS011;43955;47.362;18.930;2023-01-09T04:44:18;20.23;;;10.02;;
58137;SDS011;43955;47.362;18.930;2023-01-09T04:49:19;18.52;;;10.27;;
58137;SDS011;43955;47.362;18.930;2023-01-09T04:51:46;17.35;;;9.70;;
58137;SDS011;43955;47.362;18.930;2023-01-09T04:54:14;18.35;;;9.85;;
58137;SDS011;43955;47.362;18.930;2023-01-09T04:56:41;19.77;;;10.23;;
58137;SDS011;43955;47.362;18.930;2023-01-09T04:59:09;16.20;;;9.50;;
58137;SDS011;43955;47.362;18.930;2023-01-09T05:01:36;21.12;;;11.63;;
58137;SDS011;43955;47.362;18.930;2023-01-09T05:04:03;19.08;;;10.80;;
58137;SDS011;43955;47.362;18.930;2023-01-09T05:06:31;19.02;;;11.00;;
58137;SDS011;43955;47.362;18.930;2023-01-09T05:09:00;18.25;;;9.52;;
58137;SDS011;43955;47.362;18.930;2023-01-09T05:11:27;17.40;;;10.32;;
58137;SDS011;43955;47.362;18.930;2023-01-09T05:13:54;17.70;;;9.60;;
58137;SDS011;43955;47.362;18.930;2023-01-09T05:16:22;16.12;;;10.80;;
58137;SDS011;43955;47.362;18.930;2023-01-09T05:18:49;19.20;;;10.52;;
58137;SDS011;43955;47.362;18.930;2023-01-09T05:21:23;16.95;;;9.68;;
58137;SDS011;43955;47.362;18.930;2023-01-09T05:23:50;16.20;;;9.40;;
58137;SDS011;43955;47.362;18.930;2023-01-09T05:26:18;15.48;;;8.77;;
58137;SDS011;43955;47.362;18.930;2023-01-09T05:28:50;19.00;;;10.65;;
58137;SDS011;43955;47.362;18.930;2023-01-09T05:31:18;17.20;;;9.77;;
58137;SDS011;43955;47.362;18.930;2023-01-09T05:33:45;17.75;;;10.05;;
58137;SDS011;43955;47.362;18.930;2023-01-09T05:36:13;18.85;;;8.88;;
58137;SDS011;43955;47.362;18.930;2023-01-09T05:38:41;17.37;;;9.35;;
58137;SDS011;43955;47.362;18.930;2023-01-09T05:41:08;19.23;;;9.38;;
58137;SDS011;43955;47.362;18.930;2023-01-09T05:43:36;18.65;;;10.25;;
58137;SDS011;43955;47.362;18.930;2023-01-09T05:46:03;15.27;;;9.57;;
58137;SDS011;43955;47.362;18.930;2023-01-09T05:48:30;21.52;;;9.45;;
58137;SDS011;43955;47.362;18.930;2023-01-09T05:50:57;24.77;;;9.77;;
58137;SDS011;43955;47.362;18.930;2023-01-09T05:53:25;18.50;;;9.60;;
58137;SDS011;43955;47.362;18.930;2023-01-09T05:55:52;19.27;;;9.48;;
58137;SDS011;43955;47.362;18.930;2023-01-09T05:58:19;17.17;;;9.93;;
58137;SDS011;43955;47.362;18.930;2023-01-09T06:00:46;16.52;;;8.68;;
58137;SDS011;43955;47.362;18.930;2023-01-09T06:03:15;19.92;;;7.97;;
58137;SDS011;43955;47.362;18.930;2023-01-09T06:05:42;23.38;;;9.10;;
58137;SDS011;43955;47.362;18.930;2023-01-09T06:08:09;24.80;;;8.23;;
58137;SDS011;43955;47.362;18.930;2023-01-09T06:10:37;20.30;;;8.93;;
58137;SDS011;43955;47.362;18.930;2023-01-09T06:13:04;17.33;;;8.43;;
58137;SDS011;43955;47.362;18.930;2023-01-09T06:15:31;20.15;;;9.25;;
58137;SDS011;43955;47.362;18.930;2023-01-09T06:17:58;16.33;;;8.82;;
58137;SDS011;43955;47.362;18.930;2023-01-09T06:20:25;14.70;;;7.75;;
58137;SDS011;43955;47.362;18.930;2023-01-09T06:22:52;17.73;;;8.48;;
58137;SDS011;43955;47.362;18.930;2023-01-09T06:25:20;12.45;;;8.15;;
58137;SDS011;43955;47.362;18.930;2023-01-09T06:27:47;21.98;;;8.93;;
58137;SDS011;43955;47.362;18.930;2023-01-09T06:30:15;16.00;;;8.43;;
58137;SDS011;43955;47.362;18.930;2023-01-09T06:32:43;19.60;;;7.87;;
58137;SDS011;43955;47.362;18.930;2023-01-09T06:35:10;20.67;;;8.57;;
58137;SDS011;43955;47.362;18.930;2023-01-09T06:37:37;18.42;;;9.23;;
58137;SDS011;43955;47.362;18.930;2023-01-09T06:40:05;15.98;;;8.82;;
58137;SDS011;43955;47.362;18.930;2023-01-09T06:42:33;13.05;;;8.43;;
58137;SDS011;43955;47.362;18.930;2023-01-09T06:45:00;15.13;;;10.18;;
58137;SDS011;43955;47.362;18.930;2023-01-09T06:47:27;49.78;;;22.52;;
58137;SDS011;43955;47.362;18.930;2023-01-09T06:49:55;30.60;;;17.23;;
58137;SDS011;43955;47.362;18.930;2023-01-09T06:52:23;24.45;;;13.05;;
58137;SDS011;43955;47.362;18.930;2023-01-09T06:54:51;20.90;;;13.10;;
58137;SDS011;43955;47.362;18.930;2023-01-09T06:57:18;46.15;;;34.15;;
58137;SDS011;43955;47.362;18.930;2023-01-09T06:59:45;25.85;;;16.83;;
58137;SDS011;43955;47.362;18.930;2023-01-09T07:02:14;17.87;;;11.00;;
58137;SDS011;43955;47.362;18.930;2023-01-09T07:04:44;16.67;;;10.80;;
58137;SDS011;43955;47.362;18.930;2023-01-09T07:07:11;19.80;;;11.85;;
58137;SDS011;43955;47.362;18.930;2023-01-09T07:09:39;22.67;;;13.75;;
58137;SDS011;43955;47.362;18.930;2023-01-09T07:12:06;23.23;;;11.30;;
58137;SDS011;43955;47.362;18.930;2023-01-09T07:14:33;21.62;;;12.55;;
58137;SDS011;43955;47.362;18.930;2023-01-09T07:17:01;22.67;;;10.05;;
58137;SDS011;43955;47.362;18.930;2023-01-09T07:19:29;18.52;;;12.05;;
58137;SDS011;43955;47.362;18.930;2023-01-09T07:21:59;21.98;;;12.07;;
58137;SDS011;43955;47.362;18.930;2023-01-09T07:24:26;17.25;;;8.73;;
58137;SDS011;43955;47.362;18.930;2023-01-09T07:26:53;16.23;;;8.07;;
58137;SDS011;43955;47.362;18.930;2023-01-09T07:29:20;19.17;;;9.35;;
58137;SDS011;43955;47.362;18.930;2023-01-09T07:31:48;20.40;;;9.10;;
58137;SDS011;43955;47.362;18.930;2023-01-09T07:34:15;18.67;;;8.95;;
58137;SDS011;43955;47.362;18.930;2023-01-09T07:36:42;19.10;;;8.60;;
58137;SDS011;43955;47.362;18.930;2023-01-09T07:39:12;17.95;;;8.63;;
58137;SDS011;43955;47.362;18.930;2023-01-09T07:41:39;27.62;;;9.98;;
58137;SDS011;43955;47.362;18.930;2023-01-09T07:44:07;25.52;;;9.60;;
58137;SDS011;43955;47.362;18.930;2023-01-09T07:46:37;35.70;;;10.07;;
58137;SDS011;43955;47.362;18.930;2023-01-09T07:49:04;33.50;;;10.45;;
58137;SDS011;43955;47.362;18.930;2023-01-09T07:51:32;23.98;;;10.07;;
58137;SDS011;43955;47.362;18.930;2023-01-09T07:53:59;30.58;;;10.27;;
58137;SDS011;43955;47.362;18.930;2023-01-09T07:56:27;27.87;;;10.65;;
58137;SDS011;43955;47.362;18.930;2023-01-09T07:58:54;20.70;;;8.00;;
58137;SDS011;43955;47.362;18.930;2023-01-09T08:01:21;19.62;;;9.57;;
58137;SDS011;43955;47.362;18.930;2023-01-09T08:03:49;15.63;;;10.77;;
58137;SDS011;43955;47.362;18.930;2023-01-09T08:06:16;16.60;;;9.55;;
58137;SDS011;43955;47.362;18.930;2023-01-09T08:08:43;14.45;;;8.85;;
58137;SDS011;43955;47.362;18.930;2023-01-09T08:11:11;16.90;;;9.60;;
58137;SDS011;43955;47.362;18.930;2023-01-09T08:13:38;19.58;;;11.12;;
58137;SDS011;43955;47.362;18.930;2023-01-09T08:16:05;19.87;;;10.45;;
58137;SDS011;43955;47.362;18.930;2023-01-09T08:18:33;14.85;;;8.93;;
58137;SDS011;43955;47.362;18.930;2023-01-09T08:21:00;18.45;;;10.98;;
58137;SDS011;43955;47.362;18.930;2023-01-09T08:23:28;21.67;;;10.95;;
58137;SDS011;43955;47.362;18.930;2023-01-09T08:25:55;17.33;;;9.15;;
58137;SDS011;43955;47.362;18.930;2023-01-09T08:28:22;19.62;;;10.20;;
58137;SDS011;43955;47.362;18.930;2023-01-09T08:30:49;19.60;;;10.20;;
58137;SDS011;43955;47.362;18.930;2023-01-09T08:33:17;15.90;;;9.60;;
58137;SDS011;43955;47.362;18.930;2023-01-09T08:35:44;27.02;;;8.82;;
58137;SDS011;43955;47.362;18.930;2023-01-09T08:38:12;14.38;;;9.20;;
58137;SDS011;43955;47.362;18.930;2023-01-09T08:40:39;27.98;;;14.48;;
58137;SDS011;43955;47.362;18.930;2023-01-09T08:43:07;26.45;;;14.70;;
58137;SDS011;43955;47.362;18.930;2023-01-09T08:45:54;16.08;;;10.32;;
58137;SDS011;43955;47.362;18.930;2023-01-09T08:48:47;19.42;;;10.23;;
58137;SDS011;43955;47.362;18.930;2023-01-09T08:51:14;18.90;;;10.38;;
58137;SDS011;43955;47.362;18.930;2023-01-09T08:53:41;15.60;;;9.52;;
58137;SDS011;43955;47.362;18.930;2023-01-09T08:56:08;15.80;;;9.27;;
58137;SDS011;43955;47.362;18.930;2023-01-09T08:58:36;14.43;;;8.75;;
58137;SDS011;43955;47.362;18.930;2023-01-09T09:01:04;15.20;;;9.13;;
58137;SDS011;43955;47.362;18.930;2023-01-09T09:03:32;14.95;;;9.85;;
58137;SDS011;43955;47.362;18.930;2023-01-09T09:05:59;15.15;;;9.00;;
58137;SDS011;43955;47.362;18.930;2023-01-09T09:08:26;21.27;;;11.23;;
58137;SDS011;43955;47.362;18.930;2023-01-09T09:10:53;19.73;;;11.05;;
58137;SDS011;43955;47.362;18.930;2023-01-09T09:13:23;20.65;;;10.68;;
58137;SDS011;43955;47.362;18.930;2023-01-09T09:15:50;18.25;;;9.70;;
58137;SDS011;43955;47.362;18.930;2023-01-09T09:18:17;19.35;;;10.48;;
58137;SDS011;43955;47.362;18.930;2023-01-09T09:20:45;16.30;;;9.35;;
58137;SDS011;43955;47.362;18.930;2023-01-09T09:23:12;20.25;;;10.45;;
58137;SDS011;43955;47.362;18.930;2023-01-09T09:25:39;15.00;;;10.48;;
58137;SDS011;43955;47.362;18.930;2023-01-09T09:28:08;17.35;;;9.82;;
58137;SDS011;43955;47.362;18.930;2023-01-09T09:30:37;18.40;;;10.10;;
58137;SDS011;43955;47.362;18.930;2023-01-09T09:33:04;16.12;;;10.13;;
58137;SDS011;43955;47.362;18.930;2023-01-09T09:35:32;15.73;;;9.80;;
58137;SDS011;43955;47.362;18.930;2023-01-09T09:38:00;16.50;;;9.00;;
58137;SDS011;43955;47.362;18.930;2023-01-09T09:49:00;14.73;;;9.23;;
58137;SDS011;43955;47.362;18.930;2023-01-09T09:54:48;17.50;;;9.32;;
58137;SDS011;43955;47.362;18.930;2023-01-09T09:57:17;17.15;;;10.07;;
58137;SDS011;43955;47.362;18.930;2023-01-09T09:59:48;20.65;;;10.65;;
58137;SDS011;43955;47.362;18.930;2023-01-09T10:02:27;16.00;;;9.70;;
58137;SDS011;43955;47.362;18.930;2023-01-09T10:05:02;16.25;;;9.55;;
58137;SDS011;43955;47.362;18.930;2023-01-09T10:07:34;18.48;;;10.75;;
58137;SDS011;43955;47.362;18.930;2023-01-09T10:10:09;19.65;;;11.12;;
58137;SDS011;43955;47.362;18.930;2023-01-09T10:12:59;16.42;;;9.38;;
58137;SDS011;43955;47.362;18.930;2023-01-09T10:15:57;18.77;;;11.18;;
58137;SDS011;43955;47.362;18.930;2023-01-09T10:21:20;23.27;;;12.50;;
58137;SDS011;43955;47.362;18.930;2023-01-09T10:26:37;18.67;;;10.98;;
58137;SDS011;43955;47.362;18.930;2023-01-09T10:37:29;17.58;;;9.85;;
58137;SDS011;43955;47.362;18.930;2023-01-09T10:42:46;21.02;;;11.68;;
58137;SDS011;43955;47.362;18.930;2023-01-09T10:45:22;21.27;;;11.50;;
58137;SDS011;43955;47.362;18.930;2023-01-09T10:47:52;20.67;;;11.73;;
58137;SDS011;43955;47.362;18.930;2023-01-09T10:50:25;20.23;;;10.55;;
58137;SDS011;43955;47.362;18.930;2023-01-09T10:52:54;23.58;;;10.85;;
58137;SDS011;43955;47.362;18.930;2023-01-09T10:55:35;17.60;;;10.43;;
58137;SDS011;43955;47.362;18.930;2023-01-09T10:58:12;20.40;;;11.57;;
58137;SDS011;43955;47.362;18.930;2023-01-09T11:00:42;21.27;;;10.43;;
58137;SDS011;43955;47.362;18.930;2023-01-09T11:03:20;17.80;;;10.25;;
58137;SDS011;43955;47.362;18.930;2023-01-09T11:05:50;23.38;;;11.80;;
58137;SDS011;43955;47.362;18.930;2023-01-09T11:08:24;17.55;;;10.65;;
58137;SDS011;43955;47.362;18.930;2023-01-09T11:11:06;19.60;;;10.40;;
58137;SDS011;43955;47.362;18.930;2023-01-09T11:13:34;18.60;;;10.43;;
58137;SDS011;43955;47.362;18.930;2023-01-09T11:18:37;22.95;;;11.73;;
58137;SDS011;43955;47.362;18.930;2023-01-09T11:21:13;20.17;;;11.32;;
58137;SDS011;43955;47.362;18.930;2023-01-09T11:24:23;19.50;;;11.48;;
58137;SDS011;43955;47.362;18.930;2023-01-09T11:27:15;19.85;;;11.10;;
58137;SDS011;43955;47.362;18.930;2023-01-09T11:32:38;17.80;;;11.40;;
58137;SDS011;43955;47.362;18.930;2023-01-09T11:35:13;19.35;;;13.23;;
58137;SDS011;43955;47.362;18.930;2023-01-09T11:37:43;21.70;;;11.32;;
58137;SDS011;43955;47.362;18.930;2023-01-09T11:40:15;18.02;;;10.80;;
58137;SDS011;43955;47.362;18.930;2023-01-09T11:43:01;19.20;;;11.27;;
58137;SDS011;43955;47.362;18.930;2023-01-09T11:45:41;18.10;;;10.20;;
58137;SDS011;43955;47.362;18.930;2023-01-09T11:50:59;18.33;;;11.32;;
58137;SDS011;43955;47.362;18.930;2023-01-09T11:53:27;18.25;;;10.32;;
58137;SDS011;43955;47.362;18.930;2023-01-09T11:55:58;23.90;;;12.00;;
58137;SDS011;43955;47.362;18.930;2023-01-09T11:58:31;26.83;;;15.02;;
58137;SDS011;43955;47.362;18.930;2023-01-09T12:09:18;18.45;;;11.32;;
58137;SDS011;43955;47.362;18.930;2023-01-09T12:34:34;17.33;;;11.10;;
58137;SDS011;43955;47.362;18.930;2023-01-09T12:48:11;21.50;;;11.57;;
58137;SDS011;43955;47.362;18.930;2023-01-09T12:53:31;19.92;;;13.43;;
58137;SDS011;43955;47.362;18.930;2023-01-09T12:56:12;20.95;;;12.65;;
58137;SDS011;43955;47.362;18.930;2023-01-09T12:58:47;21.15;;;11.82;;
58137;SDS011;43955;47.362;18.930;2023-01-09T13:01:21;19.70;;;11.70;;
58137;SDS011;43955;47.362;18.930;2023-01-09T13:06:27;20.35;;;11.70;;
58137;SDS011;43955;47.362;18.930;2023-01-09T13:12:09;19.87;;;11.93;;
58137;SDS011;43955;47.362;18.930;2023-01-09T13:17:25;18.95;;;10.73;;
58137;SDS011;43955;47.362;18.930;2023-01-09T13:19:56;23.02;;;11.82;;
58137;SDS011;43955;47.362;18.930;2023-01-09T13:22:24;19.42;;;11.40;;
58137;SDS011;43955;47.362;18.930;2023-01-09T13:27:54;21.15;;;11.88;;
58137;SDS011;43955;47.362;18.930;2023-01-09T13:30:48;24.98;;;12.73;;
58137;SDS011;43955;47.362;18.930;2023-01-09T13:33:32;21.65;;;12.13;;
58137;SDS011;43955;47.362;18.930;2023-01-09T13:36:01;22.15;;;11.50;;
58137;SDS011;43955;47.362;18.930;2023-01-09T13:38:30;28.70;;;15.98;;
58137;SDS011;43955;47.362;18.930;2023-01-09T13:43:53;23.83;;;13.02;;
58137;SDS011;43955;47.362;18.930;2023-01-09T13:46:22;26.75;;;13.98;;
58137;SDS011;43955;47.362;18.930;2023-01-09T13:48:59;23.45;;;13.48;;
58137;SDS011;43955;47.362;18.930;2023-01-09T13:51:54;25.40;;;12.88;;
58137;SDS011;43955;47.362;18.930;2023-01-09T14:00:45;20.37;;;12.85;;
58137;SDS011;43955;47.362;18.930;2023-01-09T14:05:13;20.52;;;12.02;;
58137;SDS011;43955;47.362;18.930;2023-01-09T14:07:41;22.95;;;12.37;;
58137;SDS011;43955;47.362;18.930;2023-01-09T14:10:23;25.08;;;13.48;;
58137;SDS011;43955;47.362;18.930;2023-01-09T14:12:52;21.12;;;12.65;;
58137;SDS011;43955;47.362;18.930;2023-01-09T14:15:25;21.65;;;13.45;;
58137;SDS011;43955;47.362;18.930;2023-01-09T14:18:01;26.75;;;15.68;;
58137;SDS011;43955;47.362;18.930;2023-01-09T14:20:37;22.83;;;13.27;;
58137;SDS011;43955;47.362;18.930;2023-01-09T14:23:05;25.62;;;13.40;;
58137;SDS011;43955;47.362;18.930;2023-01-09T14:25:53;25.15;;;14.30;;
58137;SDS011;43955;47.362;18.930;2023-01-09T14:28:31;32.10;;;17.52;;
58137;SDS011;43955;47.362;18.930;2023-01-09T14:33:29;36.80;;;16.80;;
58137;SDS011;43955;47.362;18.930;2023-01-09T14:38:37;33.83;;;18.17;;
58137;SDS011;43955;47.362;18.930;2023-01-09T14:47:05;30.62;;;17.37;;
58137;SDS011;43955;47.362;18.930;2023-01-09T14:49:55;36.70;;;20.95;;
58137;SDS011;43955;47.362;18.930;2023-01-09T14:52:27;32.00;;;18.00;;
58137;SDS011;43955;47.362;18.930;2023-01-09T14:54:57;28.38;;;16.33;;
58137;SDS011;43955;47.362;18.930;2023-01-09T14:57:28;26.87;;;16.08;;
58137;SDS011;43955;47.362;18.930;2023-01-09T14:59:58;29.17;;;16.17;;
58137;SDS011;43955;47.362;18.930;2023-01-09T15:02:27;29.65;;;16.65;;
58137;SDS011;43955;47.362;18.930;2023-01-09T15:05:02;22.77;;;14.43;;
58137;SDS011;43955;47.362;18.930;2023-01-09T15:07:32;24.40;;;14.38;;
58137;SDS011;43955;47.362;18.930;2023-01-09T15:12:34;25.12;;;14.93;;
58137;SDS011;43955;47.362;18.930;2023-01-09T15:15:01;32.20;;;16.27;;
58137;SDS011;43955;47.362;18.930;2023-01-09T15:17:31;33.47;;;18.40;;
58137;SDS011;43955;47.362;18.930;2023-01-09T15:20:00;34.17;;;19.30;;
58137;SDS011;43955;47.362;18.930;2023-01-09T15:22:34;34.85;;;19.65;;
58137;SDS011;43955;47.362;18.930;2023-01-09T15:28:30;40.60;;;24.00;;
58137;SDS011;43955;47.362;18.930;2023-01-09T15:36:00;39.83;;;21.52;;
58137;SDS011;43955;47.362;18.930;2023-01-09T15:38:30;38.70;;;21.73;;
58137;SDS011;43955;47.362;18.930;2023-01-09T15:40:59;32.15;;;20.33;;
58137;SDS011;43955;47.362;18.930;2023-01-09T15:43:27;41.40;;;21.98;;
58137;SDS011;43955;47.362;18.930;2023-01-09T15:45:55;33.15;;;19.35;;
58137;SDS011;43955;47.362;18.930;2023-01-09T15:48:28;41.72;;;21.90;;
58137;SDS011;43955;47.362;18.930;2023-01-09T15:53:29;33.95;;;21.02;;
58137;SDS011;43955;47.362;18.930;2023-01-09T15:56:04;41.13;;;21.85;;
58137;SDS011;43955;47.362;18.930;2023-01-09T15:58:47;40.88;;;23.77;;
58137;SDS011;43955;47.362;18.930;2023-01-09T16:06:45;36.47;;;20.10;;
58137;SDS011;43955;47.362;18.930;2023-01-09T16:09:16;35.40;;;20.67;;
58137;SDS011;43955;47.362;18.930;2023-01-09T16:11:48;34.92;;;19.90;;
58137;SDS011;43955;47.362;18.930;2023-01-09T16:14:22;39.08;;;19.60;;
58137;SDS011;43955;47.362;18.930;2023-01-09T16:16:53;31.77;;;19.33;;
58137;SDS011;43955;47.362;18.930;2023-01-09T16:19:29;34.42;;;21.23;;
58137;SDS011;43955;47.362;18.930;2023-01-09T16:21:59;30.50;;;18.55;;
58137;SDS011;43955;47.362;18.930;2023-01-09T16:24:36;31.55;;;18.02;;
58137;SDS011;43955;47.362;18.930;2023-01-09T16:27:25;32.33;;;18.23;;
58137;SDS011;43955;47.362;18.930;2023-01-09T16:29:57;32.65;;;18.33;;
58137;SDS011;43955;47.362;18.930;2023-01-09T16:32:32;34.22;;;19.12;;
58137;SDS011;43955;47.362;18.930;2023-01-09T16:35:05;39.67;;;20.67;;
58137;SDS011;43955;47.362;18.930;2023-01-09T16:37:40;40.00;;;21.08;;
58137;SDS011;43955;47.362;18.930;2023-01-09T16:42:42;29.33;;;17.17;;
58137;SDS011;43955;47.362;18.930;2023-01-09T16:45:33;32.95;;;18.23;;
58137;SDS011;43955;47.362;18.930;2023-01-09T16:48:23;29.55;;;16.33;;
58137;SDS011;43955;47.362;18.930;2023-01-09T16:50:50;28.95;;;16.33;;
58137;SDS011;43955;47.362;18.930;2023-01-09T16:53:21;28.40;;;16.37;;
58137;SDS011;43955;47.362;18.930;2023-01-09T16:55:50;29.40;;;16.77;;
58137;SDS011;43955;47.362;18.930;2023-01-09T16:58:25;28.65;;;17.98;;
58137;SDS011;43955;47.362;18.930;2023-01-09T17:00:59;32.88;;;19.95;;
58137;SDS011;43955;47.362;18.930;2023-01-09T17:03:27;34.33;;;19.33;;
58137;SDS011;43955;47.362;18.930;2023-01-09T17:05:54;39.58;;;22.37;;
58137;SDS011;43955;47.362;18.930;2023-01-09T17:08:23;45.22;;;23.87;;
58137;SDS011;43955;47.362;18.930;2023-01-09T17:11:02;44.83;;;22.05;;
58137;SDS011;43955;47.362;18.930;2023-01-09T17:13:30;35.35;;;19.67;;
58137;SDS011;43955;47.362;18.930;2023-01-09T17:15:57;36.65;;;19.73;;
58137;SDS011;43955;47.362;18.930;2023-01-09T17:18:25;27.70;;;17.15;;
58137;SDS011;43955;47.362;18.930;2023-01-09T17:20:55;31.65;;;18.42;;
58137;SDS011;43955;47.362;18.930;2023-01-09T17:23:24;31.67;;;17.75;;